sensor_id;sensor_type;location;lat;lon;timestamp;pressure;altitude;pressure_sealevel;temperature;humidity
33486;BME280;19824;52.098;5.004;2023-04-02T05:02:56;101879.53;;;7.01;82.92
33486;BME280;19824;52.098;5.004;2023-04-02T05:05:43;101875.72;;;6.91;83.32
33486;BME280;19824;52.098;5.004;2023-04-02T05:08:19;101879.72;;;6.98;83.53
33486;BME280;19824;52.098;5.004;2023-04-02T05:10:58;101882.66;;;6.93;83.15
33486;BME280;19824;52.098;5.004;2023-04-02T05:13:43;101896.91;;;6.91;83.08
33486;BME280;19824;52.098;5.004;2023-04-02T05:16:24;101892.94;;;6.98;82.56
33486;BME280;19824;52.098;5.004;2023-04-02T05:19:10;101897.19;;;6.86;82.40
33486;BME280;19824;52.098;5.004;2023-04-02T05:21:46;101902.38;;;6.88;82.99
33486;BME280;19824;52.098;5.004;2023-04-02T05:24:42;101915.59;;;6.74;81.17
33486;BME280;19824;52.098;5.004;2023-04-02T05:27:33;101921.63;;;6.62;81.62
33486;BME280;19824;52.098;5.004;2023-04-02T05:30:14;101926.34;;;6.57;81.64
33486;BME280;19824;52.098;5.004;2023-04-02T05:32:58;101929.28;;;6.53;81.36
33486;BME280;19824;52.098;5.004;2023-04-02T05:35:36;101953.34;;;6.48;81.08
33486;BME280;19824;52.098;5.004;2023-04-02T05:38:20;101956.13;;;6.31;81.02
33486;BME280;19824;52.098;5.004;2023-04-02T05:40:58;101953.41;;;6.33;81.00
33486;BME280;19824;52.098;5.004;2023-04-02T05:43:37;101968.19;;;6.21;81.32
33486;BME280;19824;52.098;5.004;2023-04-02T05:46:16;101985.00;;;6.20;80.41
33486;BME280;19824;52.098;5.004;2023-04-02T05:48:56;101988.66;;;6.18;80.46
33486;BME280;19824;52.098;5.004;2023-04-02T05:51:41;101994.97;;;6.15;79.93
33486;BME280;19824;52.098;5.004;2023-04-02T05:54:20;102001.19;;;6.14;79.95
33486;BME280;19824;52.098;5.004;2023-04-02T05:57:03;102010.44;;;6.07;79.98
33486;BME280;19824;52.098;5.004;2023-04-02T05:59:38;102019.63;;;6.00;80.43
33486;BME280;19824;52.098;5.004;2023-04-02T06:02:21;102025.78;;;5.85;79.47
33486;BME280;19824;52.098;5.004;2023-04-02T06:05:03;102028.41;;;5.85;80.29
33486;BME280;19824;52.098;5.004;2023-04-02T06:07:45;102037.69;;;5.77;79.60
33486;BME280;19824;52.098;5.004;2023-04-02T06:10:27;102041.63;;;5.85;79.61
33486;BME280;19824;52.098;5.004;2023-04-02T06:13:01;102046.75;;;5.88;79.37
33486;BME280;19824;52.098;5.004;2023-04-02T06:15:41;102054.41;;;5.93;79.98
33486;BME280;19824;52.098;5.004;2023-04-02T06:18:16;102057.94;;;5.93;79.71
33486;BME280;19824;52.098;5.004;2023-04-02T06:20:54;102063.53;;;5.87;79.49
33486;BME280;19824;52.098;5.004;2023-04-02T06:23:37;102076.91;;;5.84;79.51
33486;BME280;19824;52.098;5.004;2023-04-02T06:26:17;102075.88;;;5.87;79.41
33486;BME280;19824;52.098;5.004;2023-04-02T06:29:00;102088.09;;;5.89;79.19
33486;BME280;19824;52.098;5.004;2023-04-02T06:31:37;102083.13;;;5.83;78.20
33486;BME280;19824;52.098;5.004;2023-04-02T06:34:19;102089.69;;;5.77;78.58
33486;BME280;19824;52.098;5.004;2023-04-02T06:36:54;102094.38;;;5.87;79.21
33486;BME280;19824;52.098;5.004;2023-04-02T06:39:35;102106.66;;;5.88;78.66
33486;BME280;19824;52.098;5.004;2023-04-02T06:42:15;102114.06;;;5.81;78.66
33486;BME280;19824;52.098;5.004;2023-04-02T06:44:47;102120.28;;;5.80;78.77
33486;BME280;19824;52.098;5.004;2023-04-02T06:47:31;102133.03;;;5.73;78.26
33486;BME280;19824;52.098;5.004;2023-04-02T06:50:08;102125.03;;;5.74;77.94
33486;BME280;19824;52.098;5.004;2023-04-02T06:52:52;102140.88;;;5.74;78.91
33486;BME280;19824;52.098;5.004;2023-04-02T06:55:36;102138.78;;;5.64;78.67
33486;BME280;19824;52.098;5.004;2023-04-02T06:58:16;102140.09;;;5.72;78.86
33486;BME280;19824;52.098;5.004;2023-04-02T07:00:54;102146.31;;;5.88;78.90
33486;BME280;19824;52.098;5.004;2023-04-02T07:03:27;102152.00;;;5.80;78.76
33486;BME280;19824;52.098;5.004;2023-04-02T07:06:14;102156.59;;;5.77;78.36
33486;BME280;19824;52.098;5.004;2023-04-02T07:08:45;102164.63;;;5.59;78.86
33486;BME280;19824;52.098;5.004;2023-04-02T07:11:24;102177.50;;;5.65;78.70
33486;BME280;19824;52.098;5.004;2023-04-02T07:13:54;102182.97;;;5.62;78.37
33486;BME280;19824;52.098;5.004;2023-04-02T07:16:32;102184.81;;;5.60;79.46
33486;BME280;19824;52.098;5.004;2023-04-02T07:19:03;102185.59;;;5.62;79.43
33486;BME280;19824;52.098;5.004;2023-04-02T07:21:40;102201.75;;;5.56;79.41
33486;BME280;19824;52.098;5.004;2023-04-02T07:24:17;102199.13;;;5.56;79.85
33486;BME280;19824;52.098;5.004;2023-04-02T07:26:50;102200.03;;;5.55;79.48
33486;BME280;19824;52.098;5.004;2023-04-02T07:29:27;102201.75;;;5.56;79.83
33486;BME280;19824;52.098;5.004;2023-04-02T07:32:05;102203.47;;;5.57;80.21
33486;BME280;19824;52.098;5.004;2023-04-02T07:34:35;102214.13;;;5.55;80.38
33486;BME280;19824;52.098;5.004;2023-04-02T07:37:14;102215.63;;;5.78;79.49
33486;BME280;19824;52.098;5.004;2023-04-02T07:39:44;102227.41;;;5.87;79.15
33486;BME280;19824;52.098;5.004;2023-04-02T07:42:24;102239.69;;;5.88;79.62
33486;BME280;19824;52.098;5.004;2023-04-02T07:45:00;102243.50;;;6.00;79.72
33486;BME280;19824;52.098;5.004;2023-04-02T07:47:32;102244.72;;;5.93;79.16
33486;BME280;19824;52.098;5.004;2023-04-02T07:50:09;102240.38;;;5.92;78.66
33486;BME280;19824;52.098;5.004;2023-04-02T07:52:43;102247.00;;;5.83;79.07
33486;BME280;19824;52.098;5.004;2023-04-02T07:55:19;102242.41;;;5.87;78.95
33486;BME280;19824;52.098;5.004;2023-04-02T07:57:54;102248.25;;;5.93;79.05
33486;BME280;19824;52.098;5.004;2023-04-02T08:00:31;102252.34;;;5.99;79.50
33486;BME280;19824;52.098;5.004;2023-04-02T08:03:09;102257.41;;;6.03;78.43
33486;BME280;19824;52.098;5.004;2023-04-02T08:05:42;102259.88;;;6.06;78.69
33486;BME280;19824;52.098;5.004;2023-04-02T08:08:24;102273.19;;;5.71;76.97
33486;BME280;19824;52.098;5.004;2023-04-02T08:10:54;102271.16;;;6.10;78.36
33486;BME280;19824;52.098;5.004;2023-04-02T08:13:34;102276.97;;;6.16;77.67
33486;BME280;19824;52.098;5.004;2023-04-02T08:16:06;102288.00;;;6.24;77.96
33486;BME280;19824;52.098;5.004;2023-04-02T08:18:43;102287.03;;;6.25;77.51
33486;BME280;19824;52.098;5.004;2023-04-02T08:21:14;102295.75;;;6.27;77.45
33486;BME280;19824;52.098;5.004;2023-04-02T08:23:50;102302.06;;;6.25;76.46
33486;BME280;19824;52.098;5.004;2023-04-02T08:26:21;102302.16;;;6.23;77.09
33486;BME280;19824;52.098;5.004;2023-04-02T08:29:00;102304.63;;;6.26;77.01
33486;BME280;19824;52.098;5.004;2023-04-02T08:31:36;102305.91;;;6.19;76.62
33486;BME280;19824;52.098;5.004;2023-04-02T08:34:07;102311.34;;;6.16;76.75
33486;BME280;19824;52.098;5.004;2023-04-02T08:36:44;102324.56;;;6.16;76.53
33486;BME280;19824;52.098;5.004;2023-04-02T08:39:14;102325.19;;;6.21;76.67
33486;BME280;19824;52.098;5.004;2023-04-02T08:41:59;102331.31;;;6.05;74.63
33486;BME280;19824;52.098;5.004;2023-04-02T08:44:40;102347.97;;;6.07;75.25
33486;BME280;19824;52.098;5.004;2023-04-02T08:47:20;102339.94;;;6.25;75.87
33486;BME280;19824;52.098;5.004;2023-04-02T08:50:02;102352.81;;;6.33;74.63
33486;BME280;19824;52.098;5.004;2023-04-02T08:52:40;102351.53;;;6.40;74.94
33486;BME280;19824;52.098;5.004;2023-04-02T08:55:18;102352.47;;;6.39;75.24
33486;BME280;19824;52.098;5.004;2023-04-02T08:58:16;102367.22;;;6.60;74.52
33486;BME280;19824;52.098;5.004;2023-04-02T09:00:55;102361.22;;;6.56;73.26
33486;BME280;19824;52.098;5.004;2023-04-02T09:03:37;102373.84;;;6.51;73.47
33486;BME280;19824;52.098;5.004;2023-04-02T09:06:15;102379.69;;;6.73;73.94
33486;BME280;19824;52.098;5.004;2023-04-02T09:08:55;102388.41;;;6.75;73.47
33486;BME280;19824;52.098;5.004;2023-04-02T09:11:33;102385.38;;;6.82;72.98
33486;BME280;19824;52.098;5.004;2023-04-02T09:14:16;102387.59;;;6.90;72.16
33486;BME280;19824;52.098;5.004;2023-04-02T09:16:52;102395.53;;;6.90;72.09
33486;BME280;19824;52.098;5.004;2023-04-02T09:19:34;102394.25;;;6.81;71.63
33486;BME280;19824;52.098;5.004;2023-04-02T09:22:07;102392.47;;;6.97;72.25
33486;BME280;19824;52.098;5.004;2023-04-02T09:24:44;102395.66;;;7.04;72.42
33486;BME280;19824;52.098;5.004;2023-04-02T09:27:22;102406.97;;;7.07;72.44
33486;BME280;19824;52.098;5.004;2023-04-02T09:30:05;102419.44;;;7.05;71.64
33486;BME280;19824;52.098;5.004;2023-04-02T09:32:49;102417.22;;;7.13;71.40
33486;BME280;19824;52.098;5.004;2023-04-02T09:35:29;102414.84;;;7.24;71.08
33486;BME280;19824;52.098;5.004;2023-04-02T09:38:17;102431.91;;;7.19;70.29
33486;BME280;19824;52.098;5.004;2023-04-02T09:40:50;102426.44;;;7.22;71.25
33486;BME280;19824;52.098;5.004;2023-04-02T09:43:34;102430.53;;;7.12;70.31
33486;BME280;19824;52.098;5.004;2023-04-02T09:46:22;102433.22;;;6.95;69.10
33486;BME280;19824;52.098;5.004;2023-04-02T09:49:02;102430.38;;;7.30;69.79
33486;BME280;19824;52.098;5.004;2023-04-02T09:51:39;102435.38;;;7.67;70.54
33486;BME280;19824;52.098;5.004;2023-04-02T09:54:14;102437.44;;;7.77;69.55
33486;BME280;19824;52.098;5.004;2023-04-02T09:57:00;102427.41;;;8.43;65.86
33486;BME280;19824;52.098;5.004;2023-04-02T09:59:31;102424.13;;;9.37;68.36
33486;BME280;19824;52.098;5.004;2023-04-02T10:02:23;102433.97;;;10.03;63.29
33486;BME280;19824;52.098;5.004;2023-04-02T10:05:03;102428.38;;;10.83;63.10
33486;BME280;19824;52.098;5.004;2023-04-02T10:07:56;102417.53;;;11.60;63.83
33486;BME280;19824;52.098;5.004;2023-04-02T10:10:39;102418.72;;;11.91;62.40
33486;BME280;19824;52.098;5.004;2023-04-02T10:13:24;102411.81;;;12.23;56.06
33486;BME280;19824;52.098;5.004;2023-04-02T10:16:00;102417.75;;;12.61;58.57
33486;BME280;19824;52.098;5.004;2023-04-02T10:18:44;102426.06;;;12.80;53.90
33486;BME280;19824;52.098;5.004;2023-04-02T10:21:24;102434.44;;;12.65;52.94
33486;BME280;19824;52.098;5.004;2023-04-02T10:24:00;102439.06;;;13.19;53.56
33486;BME280;19824;52.098;5.004;2023-04-02T10:26:51;102428.56;;;13.38;51.43
33486;BME280;19824;52.098;5.004;2023-04-02T10:30:10;102444.75;;;13.14;48.62
33486;BME280;19824;52.098;5.004;2023-04-02T10:32:48;102455.09;;;13.63;51.96
33486;BME280;19824;52.098;5.004;2023-04-02T10:35:45;102453.66;;;13.48;49.20
33486;BME280;19824;52.098;5.004;2023-04-02T10:38:41;102450.97;;;13.48;49.09
33486;BME280;19824;52.098;5.004;2023-04-02T10:41:30;102453.97;;;13.65;50.09
33486;BME280;19824;52.098;5.004;2023-04-02T10:44:31;102455.91;;;13.85;49.99
33486;BME280;19824;52.098;5.004;2023-04-02T10:47:24;102450.50;;;14.18;49.27
33486;BME280;19824;52.098;5.004;2023-04-02T10:50:26;102451.84;;;14.64;48.84
33486;BME280;19824;52.098;5.004;2023-04-02T10:53:12;102448.72;;;15.00;49.21
33486;BME280;19824;52.098;5.004;2023-04-02T10:55:50;102463.13;;;14.99;46.85
33486;BME280;19824;52.098;5.004;2023-04-02T10:58:30;102449.44;;;14.61;47.58
33486;BME280;19824;52.098;5.004;2023-04-02T11:01:10;102460.91;;;14.32;47.56
33486;BME280;19824;52.098;5.004;2023-04-02T11:03:53;102460.09;;;14.20;48.18
33486;BME280;19824;52.098;5.004;2023-04-02T11:06:30;102461.41;;;14.26;47.83
33486;BME280;19824;52.098;5.004;2023-04-02T11:09:16;102471.53;;;14.22;47.07
33486;BME280;19824;52.098;5.004;2023-04-02T11:11:53;102486.44;;;13.93;46.22
33486;BME280;19824;52.098;5.004;2023-04-02T11:14:32;102489.09;;;14.04;47.50
33486;BME280;19824;52.098;5.004;2023-04-02T11:17:02;102483.13;;;13.90;46.59
33486;BME280;19824;52.098;5.004;2023-04-02T11:19:40;102501.03;;;14.11;46.80
33486;BME280;19824;52.098;5.004;2023-04-02T11:22:14;102506.53;;;13.88;46.15
33486;BME280;19824;52.098;5.004;2023-04-02T11:24:52;102498.50;;;13.88;46.67
33486;BME280;19824;52.098;5.004;2023-04-02T11:27:29;102502.28;;;13.96;46.75
33486;BME280;19824;52.098;5.004;2023-04-02T11:30:18;102509.06;;;14.00;45.89
33486;BME280;19824;52.098;5.004;2023-04-02T11:32:52;102516.03;;;14.14;46.30
33486;BME280;19824;52.098;5.004;2023-04-02T11:35:37;102521.34;;;14.25;45.39
33486;BME280;19824;52.098;5.004;2023-04-02T11:38:49;102517.81;;;14.24;46.46
33486;BME280;19824;52.098;5.004;2023-04-02T11:42:00;102513.16;;;14.37;45.73
33486;BME280;19824;52.098;5.004;2023-04-02T11:44:40;102525.59;;;14.38;45.64
33486;BME280;19824;52.098;5.004;2023-04-02T11:47:17;102511.41;;;14.47;46.15
33486;BME280;19824;52.098;5.004;2023-04-02T11:50:04;102521.81;;;14.61;45.89
33486;BME280;19824;52.098;5.004;2023-04-02T11:52:49;102522.09;;;14.58;45.96
33486;BME280;19824;52.098;5.004;2023-04-02T11:55:30;102526.41;;;14.50;44.84
33486;BME280;19824;52.098;5.004;2023-04-02T11:58:26;102530.16;;;14.47;44.75
33486;BME280;19824;52.098;5.004;2023-04-02T12:01:40;102524.94;;;14.46;43.18
33486;BME280;19824;52.098;5.004;2023-04-02T12:05:09;102537.47;;;14.45;45.20
33486;BME280;19824;52.098;5.004;2023-04-02T12:10:58;102535.63;;;14.88;44.44
33486;BME280;19824;52.098;5.004;2023-04-02T12:13:53;102535.81;;;14.33;44.74
33486;BME280;19824;52.098;5.004;2023-04-02T12:16:36;102537.94;;;14.19;45.31
33486;BME280;19824;52.098;5.004;2023-04-02T12:19:08;102539.16;;;14.15;45.97
33486;BME280;19824;52.098;5.004;2023-04-02T12:21:45;102538.78;;;13.97;45.75
33486;BME280;19824;52.098;5.004;2023-04-02T12:24:19;102555.72;;;13.98;45.77
33486;BME280;19824;52.098;5.004;2023-04-02T12:27:15;102557.31;;;13.78;44.83
33486;BME280;19824;52.098;5.004;2023-04-02T12:29:49;102543.41;;;13.52;45.32
33486;BME280;19824;52.098;5.004;2023-04-02T12:32:30;102541.22;;;13.46;45.58
33486;BME280;19824;52.098;5.004;2023-04-02T12:35:04;102545.97;;;13.53;46.26
33486;BME280;19824;52.098;5.004;2023-04-02T12:37:41;102550.72;;;13.50;45.48
33486;BME280;19824;52.098;5.004;2023-04-02T12:40:17;102561.38;;;13.17;46.29
33486;BME280;19824;52.098;5.004;2023-04-02T12:42:54;102565.81;;;13.05;47.13
33486;BME280;19824;52.098;5.004;2023-04-02T12:45:32;102565.00;;;13.16;47.90
33486;BME280;19824;52.098;5.004;2023-04-02T12:48:05;102567.09;;;12.89;46.40
33486;BME280;19824;52.098;5.004;2023-04-02T12:50:42;102569.63;;;13.14;47.47
33486;BME280;19824;52.098;5.004;2023-04-02T12:53:20;102582.63;;;13.07;46.61
33486;BME280;19824;52.098;5.004;2023-04-02T12:55:58;102571.53;;;13.01;46.52
33486;BME280;19824;52.098;5.004;2023-04-02T12:58:37;102565.69;;;12.83;47.76
33486;BME280;19824;52.098;5.004;2023-04-02T13:01:12;102571.47;;;12.90;47.52
